createdAt,value
2018-07-15T00:00:44.420Z,9.00
2018-07-15T00:03:13.315Z,8.87
2018-07-15T00:05:42.273Z,8.57
2018-07-15T00:08:10.944Z,9.03
2018-07-15T00:10:44.834Z,9.10
2018-07-15T00:13:14.196Z,9.00
2018-07-15T00:15:44.065Z,8.93
2018-07-15T00:18:12.702Z,9.10
2018-07-15T00:20:41.392Z,9.07
2018-07-15T00:23:10.144Z,9.13
2018-07-15T00:25:38.841Z,9.07
2018-07-15T00:28:07.498Z,8.60
2018-07-15T00:30:36.528Z,9.20
2018-07-15T00:33:05.618Z,8.90
2018-07-15T00:35:34.304Z,8.50
2018-07-15T00:38:03.334Z,9.00
2018-07-15T00:40:31.982Z,8.73
2018-07-15T00:43:01.081Z,8.63
2018-07-15T00:45:29.735Z,9.60
2018-07-15T00:47:58.397Z,12.67
2018-07-15T00:50:27.500Z,12.50
2018-07-15T00:52:56.435Z,10.30
2018-07-15T00:55:25.205Z,9.27
2018-07-15T00:57:53.873Z,9.00
2018-07-15T01:00:28.184Z,9.10
2018-07-15T01:02:56.866Z,8.40
2018-07-15T01:05:25.495Z,8.80
2018-07-15T01:07:54.155Z,9.17
2018-07-15T01:10:22.976Z,8.70
2018-07-15T01:12:52.024Z,8.97
2018-07-15T01:15:20.672Z,9.13
2018-07-15T01:17:49.620Z,8.63
2018-07-15T01:20:18.834Z,8.83
2018-07-15T01:22:47.811Z,8.90
2018-07-15T01:25:16.491Z,8.60
2018-07-15T01:27:45.422Z,9.40
2018-07-15T01:30:14.123Z,8.93
2018-07-15T01:32:42.996Z,9.00
2018-07-15T01:35:12.072Z,9.10
2018-07-15T01:37:41.273Z,8.70
2018-07-15T01:40:10.251Z,9.07
2018-07-15T01:42:39.831Z,9.20
2018-07-15T01:45:08.470Z,9.13
2018-07-15T01:47:37.351Z,9.13
2018-07-15T01:50:06.008Z,9.10
2018-07-15T01:52:35.075Z,8.70
2018-07-15T01:55:03.759Z,9.30
2018-07-15T01:57:32.947Z,9.10
2018-07-15T02:00:01.603Z,9.10
2018-07-15T02:02:30.559Z,9.80
2018-07-15T02:04:59.249Z,9.40
2018-07-15T02:07:28.159Z,9.60
2018-07-15T02:09:56.863Z,9.80
2018-07-15T02:12:25.550Z,9.30
2018-07-15T02:14:54.242Z,9.50
2018-07-15T02:17:22.947Z,9.40
2018-07-15T02:19:51.839Z,9.17
2018-07-15T02:22:20.547Z,9.43
2018-07-15T02:24:49.262Z,10.00
2018-07-15T02:27:18.479Z,9.67
2018-07-15T02:29:47.194Z,10.13
2018-07-15T02:32:15.853Z,9.40
2018-07-15T02:34:44.494Z,10.30
2018-07-15T02:37:13.107Z,9.23
2018-07-15T02:39:42.054Z,9.80
2018-07-15T02:42:10.948Z,9.90
2018-07-15T02:44:39.626Z,9.80
2018-07-15T02:47:08.293Z,9.33
2018-07-15T02:49:36.922Z,9.60
2018-07-15T02:52:05.695Z,9.70
2018-07-15T02:54:35.188Z,9.50
2018-07-15T02:57:03.950Z,10.20
2018-07-15T02:59:32.614Z,9.90
2018-07-15T03:02:01.557Z,9.67
2018-07-15T03:04:30.779Z,9.37
2018-07-15T03:06:59.472Z,9.60
2018-07-15T03:09:28.122Z,9.00
2018-07-15T03:11:56.792Z,9.63
2018-07-15T03:14:25.728Z,9.53
2018-07-15T03:16:54.354Z,9.40
2018-07-15T03:19:23.005Z,9.60
2018-07-15T03:21:52.300Z,9.30
2018-07-15T03:24:21.295Z,9.90
2018-07-15T03:26:50.026Z,10.20
2018-07-15T03:29:19.262Z,9.90
2018-07-15T03:31:48.321Z,10.03
2018-07-15T03:34:17.874Z,9.40
2018-07-15T03:36:46.542Z,9.40
2018-07-15T03:39:16.205Z,9.60
2018-07-15T03:41:44.996Z,9.47
2018-07-15T03:44:13.748Z,9.83
2018-07-15T03:46:42.434Z,9.37
2018-07-15T03:49:11.266Z,9.70
2018-07-15T03:51:39.952Z,9.57
2018-07-15T03:54:08.764Z,9.33
2018-07-15T03:56:37.534Z,9.50
2018-07-15T03:59:06.454Z,9.80
2018-07-15T04:01:35.449Z,9.77
2018-07-15T04:04:04.068Z,9.50
2018-07-15T04:06:32.782Z,9.77
2018-07-15T04:09:01.494Z,9.70
2018-07-15T04:11:30.325Z,10.27
2018-07-15T04:13:59.394Z,9.43
2018-07-15T04:16:28.025Z,9.60
2018-07-15T04:18:57.330Z,9.90
2018-07-15T04:21:26.043Z,9.57
2018-07-15T04:23:54.822Z,9.50
2018-07-15T04:26:23.536Z,9.77
2018-07-15T04:28:52.301Z,9.63
2018-07-15T04:31:20.970Z,9.70
2018-07-15T04:33:49.615Z,9.73
2018-07-15T04:36:18.242Z,9.90
2018-07-15T04:38:46.917Z,9.80
2018-07-15T04:41:15.923Z,9.70
2018-07-15T04:43:44.558Z,9.83
2018-07-15T04:46:13.544Z,9.90
2018-07-15T04:48:42.267Z,10.00
2018-07-15T04:51:11.191Z,10.10
2018-07-15T04:53:40.064Z,9.80
2018-07-15T04:56:08.923Z,9.33
2018-07-15T04:58:37.860Z,9.77
2018-07-15T05:01:06.550Z,9.70
2018-07-15T05:03:35.436Z,10.30
2018-07-15T05:06:04.417Z,9.70
2018-07-15T05:08:33.079Z,9.73
2018-07-15T05:11:02.021Z,9.40
2018-07-15T05:13:30.679Z,9.60
2018-07-15T05:15:59.335Z,9.83
2018-07-15T05:18:28.297Z,9.93
2018-07-15T05:20:57.066Z,9.90
2018-07-15T05:23:26.371Z,10.10
2018-07-15T05:25:54.990Z,9.70
2018-07-15T05:28:23.712Z,9.80
2018-07-15T05:30:52.413Z,9.40
2018-07-15T05:33:21.177Z,9.10
2018-07-15T05:35:49.851Z,9.73
2018-07-15T05:38:18.845Z,9.27
2018-07-15T05:40:47.478Z,8.90
2018-07-15T05:43:16.127Z,10.87
2018-07-15T05:45:44.789Z,9.37
2018-07-15T05:48:13.492Z,9.37
2018-07-15T05:50:42.180Z,8.90
2018-07-15T05:53:10.817Z,9.30
2018-07-15T05:55:39.689Z,8.97
2018-07-15T05:58:08.569Z,9.13
2018-07-15T06:00:37.449Z,9.10
2018-07-15T06:03:06.369Z,9.10
2018-07-15T06:05:35.010Z,9.27
2018-07-15T06:08:03.673Z,9.00
2018-07-15T06:10:32.602Z,8.90
2018-07-15T06:13:01.613Z,8.70
2018-07-15T06:15:31.264Z,8.83
2018-07-15T06:17:59.912Z,8.77
2018-07-15T06:20:28.610Z,9.00
2018-07-15T06:22:57.937Z,8.80
2018-07-15T06:25:26.927Z,9.10
2018-07-15T06:27:56.135Z,9.40
2018-07-15T06:30:24.847Z,9.00
2018-07-15T06:32:53.738Z,8.53
2018-07-15T06:35:22.421Z,9.00
2018-07-15T06:37:51.213Z,9.00
2018-07-15T06:40:20.076Z,9.00
2018-07-15T06:42:48.915Z,9.37
2018-07-15T06:45:17.552Z,8.80
2018-07-15T06:47:46.183Z,8.80
2018-07-15T06:50:14.851Z,8.90
2018-07-15T06:52:43.848Z,8.97
2018-07-15T06:55:12.462Z,8.80
2018-07-15T06:57:41.087Z,8.63
2018-07-15T07:00:10.000Z,8.87
2018-07-15T07:02:38.723Z,8.50
2018-07-15T07:05:07.989Z,8.87
2018-07-15T07:07:37.029Z,8.40
2018-07-15T07:10:05.669Z,8.50
2018-07-15T07:12:34.309Z,8.77
2018-07-15T07:15:03.011Z,8.63
2018-07-15T07:17:31.974Z,8.70
2018-07-15T07:20:00.981Z,8.30
2018-07-15T07:22:29.580Z,8.87
2018-07-15T07:24:58.224Z,8.13
2018-07-15T07:27:27.078Z,8.60
2018-07-15T07:29:56.136Z,8.70
2018-07-15T07:32:24.739Z,8.77
2018-07-15T07:34:53.689Z,8.53
2018-07-15T07:37:22.718Z,8.77
2018-07-15T07:39:51.434Z,8.43
2018-07-15T07:42:20.131Z,8.60
2018-07-15T07:44:48.767Z,8.50
2018-07-15T07:47:17.486Z,8.43
2018-07-15T07:49:46.174Z,9.40
2018-07-15T07:52:15.081Z,9.00
2018-07-15T07:54:44.184Z,8.87
2018-07-15T07:57:13.147Z,8.20
2018-07-15T07:59:41.919Z,8.80
2018-07-15T08:02:10.602Z,8.47
2018-07-15T08:04:39.288Z,8.37
2018-07-15T08:07:08.432Z,8.40
2018-07-15T08:09:37.446Z,8.00
2018-07-15T08:12:06.187Z,8.40
2018-07-15T08:14:35.284Z,8.73
2018-07-15T08:17:03.978Z,8.60
2018-07-15T08:19:32.640Z,8.50
2018-07-15T08:22:01.314Z,8.63
2018-07-15T08:24:29.999Z,8.77
2018-07-15T08:26:59.095Z,8.60
2018-07-15T08:29:27.789Z,8.30
2018-07-15T08:31:56.486Z,8.40
2018-07-15T08:34:25.274Z,8.50
2018-07-15T08:36:53.942Z,8.43
2018-07-15T08:39:23.279Z,8.63
2018-07-15T08:41:51.959Z,10.73
2018-07-15T08:44:20.703Z,8.50
2018-07-15T08:46:50.333Z,8.30
2018-07-15T08:49:19.073Z,7.97
2018-07-15T08:51:47.972Z,8.80
2018-07-15T08:54:16.655Z,7.77
2018-07-15T08:56:45.331Z,7.97
2018-07-15T08:59:14.112Z,8.30
2018-07-15T09:01:42.830Z,8.50
2018-07-15T09:04:11.763Z,8.80
2018-07-15T09:06:41.924Z,8.10
2018-07-15T09:09:11.232Z,8.23
2018-07-15T09:11:40.230Z,8.73
2018-07-15T09:14:10.656Z,7.93
2018-07-15T09:16:39.899Z,8.63
2018-07-15T09:19:09.130Z,8.40
2018-07-15T09:21:38.423Z,8.87
2018-07-15T09:24:07.944Z,8.37
2018-07-15T09:26:37.232Z,8.70
2018-07-15T09:29:06.754Z,7.93
2018-07-15T09:31:36.478Z,8.00
2018-07-15T09:34:05.563Z,8.30
2018-07-15T09:36:34.507Z,8.03
2018-07-15T09:39:03.661Z,8.40
2018-07-15T09:41:32.622Z,7.93
2018-07-15T09:44:01.768Z,8.20
2018-07-15T09:46:30.429Z,8.17
2018-07-15T09:48:59.087Z,8.30
2018-07-15T09:51:27.887Z,8.10
2018-07-15T09:53:57.122Z,8.40
2018-07-15T09:56:25.836Z,8.83
2018-07-15T09:58:54.572Z,8.40
2018-07-15T10:01:23.253Z,8.80
2018-07-15T10:03:52.002Z,8.27
2018-07-15T10:06:20.726Z,8.40
2018-07-15T10:08:49.399Z,8.50
2018-07-15T10:11:18.115Z,8.30
2018-07-15T10:13:47.512Z,8.40
2018-07-15T10:16:16.496Z,8.77
2018-07-15T10:18:45.210Z,8.77
2018-07-15T10:21:13.892Z,8.60
2018-07-15T10:23:42.896Z,8.50
2018-07-15T10:26:11.749Z,8.63
2018-07-15T10:28:40.485Z,9.00
2018-07-15T10:31:10.023Z,7.93
2018-07-15T10:33:38.701Z,8.37
2018-07-15T10:36:11.537Z,9.03
2018-07-15T10:38:40.584Z,8.37
2018-07-15T10:41:09.573Z,9.10
2018-07-15T10:43:43.537Z,8.53
2018-07-15T10:46:12.172Z,8.70
2018-07-15T10:48:40.873Z,8.50
2018-07-15T10:51:10.256Z,8.77
2018-07-15T10:53:39.275Z,8.93
2018-07-15T10:56:09.017Z,8.60
2018-07-15T10:58:37.743Z,8.80
2018-07-15T11:01:09.630Z,8.43
2018-07-15T11:03:38.204Z,21.37
2018-07-15T11:06:07.180Z,8.73
2018-07-15T11:08:36.073Z,8.80
2018-07-15T11:11:04.904Z,9.03
2018-07-15T11:13:33.602Z,8.10
2018-07-15T11:16:02.259Z,8.53
2018-07-15T11:18:31.329Z,8.43
2018-07-15T11:21:00.323Z,8.73
2018-07-15T11:23:29.017Z,8.70
2018-07-15T11:25:58.124Z,8.67
2018-07-15T11:28:27.171Z,8.50
2018-07-15T11:30:57.576Z,8.43
2018-07-15T11:33:26.223Z,9.23
2018-07-15T11:35:55.147Z,8.30
2018-07-15T11:38:23.941Z,8.60
2018-07-15T11:40:53.122Z,8.60
2018-07-15T11:43:21.877Z,8.93
2018-07-15T11:45:51.003Z,8.00
2018-07-15T11:48:19.763Z,8.60
2018-07-15T11:50:48.493Z,8.87
2018-07-15T11:53:17.450Z,8.53
2018-07-15T11:55:46.418Z,8.60
2018-07-15T11:58:15.427Z,8.40
2018-07-15T12:00:44.406Z,8.90
2018-07-15T12:03:13.191Z,9.07
2018-07-15T12:05:42.442Z,8.73
2018-07-15T12:08:11.190Z,8.83
2018-07-15T12:10:40.119Z,8.90
2018-07-15T12:13:09.185Z,8.53
2018-07-15T12:15:37.854Z,8.53
2018-07-15T12:18:06.896Z,8.33
2018-07-15T12:20:35.828Z,8.30
2018-07-15T12:23:04.599Z,8.50
2018-07-15T12:25:33.374Z,8.20
2018-07-15T12:28:02.074Z,7.90
2018-07-15T12:30:31.148Z,9.53
2018-07-15T12:32:59.805Z,8.10
2018-07-15T12:35:28.647Z,7.65
2018-07-15T12:37:57.504Z,7.92
2018-07-15T12:40:26.140Z,8.20
2018-07-15T12:42:54.774Z,8.30
2018-07-15T12:45:23.407Z,7.47
2018-07-15T12:47:52.095Z,7.78
2018-07-15T12:50:20.864Z,8.10
2018-07-15T12:52:49.726Z,7.75
2018-07-15T12:55:18.663Z,7.83
2018-07-15T12:57:47.378Z,8.00
2018-07-15T13:00:16.197Z,8.18
2018-07-15T13:02:44.918Z,8.55
2018-07-15T13:05:14.053Z,7.87
2018-07-15T13:07:42.694Z,7.78
2018-07-15T13:10:11.372Z,8.00
2018-07-15T13:12:40.022Z,7.70
2018-07-15T13:15:08.946Z,8.00
2018-07-15T13:17:37.662Z,7.83
2018-07-15T13:20:11.523Z,7.65
2018-07-15T13:22:40.284Z,8.93
2018-07-15T13:25:09.383Z,9.60
2018-07-15T13:27:38.422Z,7.70
2018-07-15T13:30:07.836Z,7.92
2018-07-15T13:32:36.888Z,8.10
2018-07-15T13:35:06.107Z,7.67
2018-07-15T13:37:35.266Z,7.83
2018-07-15T13:40:08.604Z,7.62
2018-07-15T13:42:41.732Z,7.50
2018-07-15T13:45:10.781Z,8.10
2018-07-15T13:47:42.382Z,7.47
2018-07-15T13:50:12.424Z,8.65
2018-07-15T13:52:41.143Z,8.10
2018-07-15T13:55:14.613Z,7.80
2018-07-15T13:57:43.431Z,8.15
2018-07-15T14:00:12.230Z,7.90
2018-07-15T14:02:41.034Z,7.42
2018-07-15T14:05:10.175Z,7.75
2018-07-15T14:07:39.598Z,8.00
2018-07-15T14:10:08.537Z,7.90
2018-07-15T14:12:37.640Z,7.78
2018-07-15T14:15:06.468Z,7.72
2018-07-15T14:17:36.121Z,7.70
2018-07-15T14:20:04.973Z,7.90
2018-07-15T14:22:33.722Z,7.50
2018-07-15T14:25:05.406Z,8.00
2018-07-15T14:27:34.129Z,8.00
2018-07-15T14:30:04.511Z,8.20
2018-07-15T14:32:33.895Z,7.95
2018-07-15T14:35:02.982Z,7.92
2018-07-15T14:37:31.856Z,8.20
2018-07-15T14:40:00.584Z,8.33
2018-07-15T14:42:29.271Z,8.43
2018-07-15T14:44:58.334Z,8.18
2018-07-15T14:47:27.381Z,8.70
2018-07-15T14:49:56.760Z,8.65
2018-07-15T14:52:25.500Z,8.48
2018-07-15T14:54:54.150Z,8.53
2018-07-15T14:57:23.371Z,8.63
2018-07-15T14:59:52.273Z,8.70
2018-07-15T15:02:21.461Z,8.70
2018-07-15T15:04:50.887Z,8.90
2018-07-15T15:07:20.300Z,8.23
2018-07-15T15:09:49.745Z,9.00
2018-07-15T15:12:18.543Z,9.27
2018-07-15T15:14:47.715Z,9.90
2018-07-15T15:17:16.408Z,9.70
2018-07-15T15:19:45.134Z,10.00
2018-07-15T15:22:13.877Z,10.53
2018-07-15T15:24:42.637Z,9.23
2018-07-15T15:27:11.317Z,8.80
2018-07-15T15:29:40.092Z,9.20
2018-07-15T15:32:09.353Z,9.43
2018-07-15T15:34:38.235Z,8.83
2018-07-15T15:37:07.334Z,9.07
2018-07-15T15:39:36.130Z,9.73
2018-07-15T15:42:04.846Z,9.63
2018-07-15T15:44:33.575Z,9.40
2018-07-15T15:47:02.860Z,8.87
2018-07-15T15:49:31.596Z,10.73
2018-07-15T15:52:03.510Z,8.93
2018-07-15T15:54:40.930Z,8.60
2018-07-15T15:57:10.651Z,9.90
2018-07-15T15:59:39.637Z,8.97
2018-07-15T16:02:08.694Z,8.80
2018-07-15T16:04:37.984Z,9.00
2018-07-15T16:07:06.739Z,9.40
2018-07-15T16:09:35.844Z,8.73
2018-07-15T16:12:06.929Z,10.17
2018-07-15T16:14:35.595Z,9.37
2018-07-15T16:17:04.327Z,9.10
2018-07-15T16:19:33.194Z,9.83
2018-07-15T16:22:02.666Z,10.30
2018-07-15T16:24:31.861Z,9.47
2018-07-15T16:27:00.622Z,9.17
2018-07-15T16:29:29.616Z,8.80
2018-07-15T16:31:58.593Z,9.30
2018-07-15T16:34:27.296Z,9.03
2018-07-15T16:36:55.943Z,9.17
2018-07-15T16:39:24.787Z,9.43
2018-07-15T16:41:53.835Z,9.10
2018-07-15T16:44:22.854Z,9.10
2018-07-15T16:46:52.331Z,9.10
2018-07-15T16:49:21.638Z,8.93
2018-07-15T16:51:51.027Z,8.80
2018-07-15T16:54:19.995Z,8.43
2018-07-15T16:56:49.156Z,9.10
2018-07-15T16:59:17.919Z,9.73
2018-07-15T17:01:46.628Z,9.13
2018-07-15T17:04:15.660Z,9.10
2018-07-15T17:06:44.451Z,8.87
2018-07-15T17:09:13.639Z,8.80
2018-07-15T17:11:42.749Z,9.10
2018-07-15T17:14:11.750Z,9.73
2018-07-15T17:16:40.512Z,8.90
2018-07-15T17:19:09.532Z,8.80
2018-07-15T17:21:38.300Z,9.00
2018-07-15T17:24:07.065Z,8.70
2018-07-15T17:26:35.739Z,9.20
2018-07-15T17:29:04.476Z,9.40
2018-07-15T17:31:33.357Z,9.77
2018-07-15T17:34:03.760Z,9.30
2018-07-15T17:36:32.508Z,8.60
2018-07-15T17:39:01.185Z,9.13
2018-07-15T17:41:31.510Z,9.60
2018-07-15T17:44:00.534Z,9.10
2018-07-15T17:46:29.468Z,9.20
2018-07-15T17:48:59.715Z,8.60
2018-07-15T17:51:28.695Z,8.87
2018-07-15T17:53:57.749Z,8.73
2018-07-15T17:56:27.217Z,8.90
2018-07-15T17:58:56.963Z,8.80
2018-07-15T18:01:25.817Z,8.83
2018-07-15T18:03:54.638Z,9.40
2018-07-15T18:06:23.375Z,8.70
2018-07-15T18:08:52.175Z,9.00
2018-07-15T18:11:20.970Z,8.80
2018-07-15T18:13:50.919Z,9.10
2018-07-15T18:16:20.599Z,9.13
2018-07-15T18:18:52.418Z,9.20
2018-07-15T18:21:21.737Z,9.00
2018-07-15T18:23:51.546Z,9.50
2018-07-15T18:26:20.433Z,9.77
2018-07-15T18:28:49.069Z,9.20
2018-07-15T18:31:17.809Z,9.13
2018-07-15T18:33:47.033Z,9.23
2018-07-15T18:36:15.742Z,9.00
2018-07-15T18:38:44.528Z,9.03
2018-07-15T18:41:13.292Z,8.87
2018-07-15T18:43:42.039Z,9.00
2018-07-15T18:46:10.880Z,10.00
2018-07-15T18:48:39.639Z,9.03
2018-07-15T18:51:08.440Z,9.43
2018-07-15T18:53:37.493Z,9.00
2018-07-15T18:56:06.228Z,9.37
2018-07-15T18:58:35.259Z,9.60
2018-07-15T19:01:04.086Z,9.50
2018-07-15T19:03:33.074Z,9.40
2018-07-15T19:06:01.870Z,9.67
2018-07-15T19:08:30.818Z,9.13
2018-07-15T19:10:59.543Z,9.40
2018-07-15T19:13:28.350Z,9.30
2018-07-15T19:15:57.411Z,9.47
2018-07-15T19:18:26.273Z,9.43
2018-07-15T19:20:55.122Z,9.43
2018-07-15T19:23:23.822Z,9.73
2018-07-15T19:25:52.692Z,9.03
2018-07-15T19:28:21.793Z,9.50
2018-07-15T19:30:50.482Z,9.30
2018-07-15T19:33:19.548Z,11.57
2018-07-15T19:35:48.265Z,11.17
2018-07-15T19:38:17.030Z,9.70
2018-07-15T19:40:45.967Z,9.80
2018-07-15T19:43:14.685Z,9.70
2018-07-15T19:45:46.852Z,9.60
2018-07-15T19:48:16.943Z,9.90
2018-07-15T19:50:45.776Z,9.63
2018-07-15T19:53:14.501Z,9.70
2018-07-15T19:55:43.232Z,9.90
2018-07-15T19:58:12.013Z,9.80
2018-07-15T20:00:41.115Z,9.20
2018-07-15T20:03:10.453Z,10.47
2018-07-15T20:05:39.270Z,10.33
2018-07-15T20:08:09.941Z,10.30
2018-07-15T20:10:40.483Z,11.20
2018-07-15T20:13:10.494Z,10.73
2018-07-15T20:15:40.171Z,10.37
2018-07-15T20:18:09.641Z,10.10
2018-07-15T20:20:39.667Z,10.90
2018-07-15T20:23:10.605Z,10.30
2018-07-15T20:25:40.416Z,10.27
2018-07-15T20:28:09.301Z,10.50
2018-07-15T20:30:38.323Z,9.70
2018-07-15T20:33:08.597Z,10.77
2018-07-15T20:35:38.729Z,10.60
2018-07-15T20:38:09.407Z,10.53
2018-07-15T20:40:38.649Z,11.03
2018-07-15T20:43:10.089Z,11.20
2018-07-15T20:45:39.497Z,11.23
2018-07-15T20:48:08.292Z,11.30
2018-07-15T20:50:37.375Z,11.33
2018-07-15T20:53:06.537Z,10.67
2018-07-15T20:55:35.214Z,11.60
2018-07-15T20:58:04.614Z,11.97
2018-07-15T21:00:33.613Z,11.30
2018-07-15T21:03:02.962Z,11.53
2018-07-15T21:05:32.563Z,11.70
2018-07-15T21:08:02.096Z,12.03
2018-07-15T21:10:30.895Z,11.00
2018-07-15T21:13:00.043Z,11.60
2018-07-15T21:15:33.137Z,11.73
2018-07-15T21:18:02.254Z,11.20
2018-07-15T21:20:31.258Z,11.67
2018-07-15T21:23:00.464Z,12.10
2018-07-15T21:25:29.738Z,11.37
2018-07-15T21:27:59.168Z,11.07
2018-07-15T21:30:28.429Z,11.40
2018-07-15T21:32:57.861Z,11.40
2018-07-15T21:35:27.511Z,10.80
2018-07-15T21:37:56.810Z,11.00
2018-07-15T21:40:26.990Z,10.80
2018-07-15T21:42:55.995Z,10.60
2018-07-15T21:45:25.264Z,11.87
2018-07-15T21:47:54.197Z,12.30
2018-07-15T21:50:23.622Z,11.20
2018-07-15T21:52:52.261Z,10.50
2018-07-15T21:55:21.371Z,11.10
2018-07-15T21:57:50.320Z,11.27
2018-07-15T22:00:19.255Z,12.10
2018-07-15T22:02:48.334Z,11.20
2018-07-15T22:05:17.678Z,11.30
2018-07-15T22:07:57.455Z,11.13
2018-07-15T22:10:48.055Z,11.20
2018-07-15T22:13:16.924Z,11.60
2018-07-15T22:15:45.566Z,11.33
2018-07-15T22:18:14.256Z,11.80
2018-07-15T22:20:43.048Z,11.87
2018-07-15T22:23:11.714Z,11.63
2018-07-15T22:25:40.419Z,11.27
2018-07-15T22:28:09.334Z,11.63
2018-07-15T22:30:38.366Z,11.70
2018-07-15T22:33:07.409Z,11.63
2018-07-15T22:35:36.133Z,11.03
2018-07-15T22:38:04.872Z,10.77
2018-07-15T22:40:33.664Z,11.27
2018-07-15T22:43:02.659Z,11.43
2018-07-15T22:45:31.385Z,11.10
2018-07-15T22:48:00.654Z,11.30
2018-07-15T22:50:29.831Z,12.50
2018-07-15T22:52:58.824Z,11.77
2018-07-15T22:55:27.532Z,11.67
2018-07-15T22:57:56.191Z,11.47
2018-07-15T23:00:24.931Z,11.27
2018-07-15T23:02:53.665Z,11.70
2018-07-15T23:05:37.459Z,12.43
2018-07-15T23:08:06.724Z,11.50
2018-07-15T23:10:35.702Z,12.13
2018-07-15T23:13:05.798Z,12.10
2018-07-15T23:15:35.500Z,12.20
2018-07-15T23:18:04.516Z,12.03
2018-07-15T23:20:34.004Z,12.53
2018-07-15T23:23:03.752Z,12.17
2018-07-15T23:25:32.945Z,13.43
2018-07-15T23:28:02.286Z,11.83
2018-07-15T23:30:32.111Z,12.60
2018-07-15T23:33:01.515Z,11.93
2018-07-15T23:35:30.530Z,11.80
2018-07-15T23:37:59.673Z,12.33
2018-07-15T23:40:28.715Z,12.90
2018-07-15T23:42:58.303Z,11.97
2018-07-15T23:45:28.010Z,12.37
2018-07-15T23:47:57.047Z,12.93
2018-07-15T23:50:26.302Z,11.93
2018-07-15T23:52:55.057Z,12.23
2018-07-15T23:55:23.844Z,12.20
2018-07-15T23:57:53.313Z,12.10
